Time;durP1;ratioP1;P1;durP2;ratioP2;P2;SDS_P1;SDS_P2;PMS_P1;PMS_P2;Temp;Humidity;BMP_temperature;BMP_pressure;BME280_temperature;BME280_humidity;BME280_pressure;Samples;Min_cycle;Max_cycle;Signal;HPM_P1;HPM_P2
2023/10/03 00:00:24;;;;;;;26.25;17.20;;;20.20;99.90;;;;;;2076473;28;20026;-73
2023/10/03 00:01:25;;;;;;;27.83;16.23;;;20.20;99.90;;;;;;2078210;28;20136;-74
2023/10/03 00:02:27;;;;;;;25.55;16.10;;;20.20;99.90;;;;;;2077597;28;20115;-74
2023/10/03 00:03:28;;;;;;;26.33;16.42;;;20.20;99.90;;;;;;2067267;28;20068;-73
2023/10/03 00:04:29;;;;;;;28.42;16.73;;;20.20;99.90;;;;;;2066762;28;20029;-74
2023/10/03 00:05:31;;;;;;;25.92;16.95;;;20.20;99.90;;;;;;2066753;28;20073;-74
2023/10/03 00:06:33;;;;;;;25.42;16.70;;;20.20;99.90;;;;;;2059024;28;20026;-74
2023/10/03 00:07:34;;;;;;;24.75;15.50;;;20.20;99.90;;;;;;2069329;28;20026;-73
2023/10/03 00:08:35;;;;;;;26.17;16.25;;;20.20;99.90;;;;;;2077719;28;20071;-74
2023/10/03 00:09:35;;;;;;;28.75;16.95;;;20.20;99.90;;;;;;2077645;28;20033;-74
2023/10/03 00:10:38;;;;;;;25.98;15.23;;;20.20;99.90;;;;;;2077161;28;20028;-73
2023/10/03 00:11:39;;;;;;;27.10;16.85;;;20.20;99.90;;;;;;2077897;28;20029;-73
2023/10/03 00:12:39;;;;;;;23.67;16.58;;;20.20;99.90;;;;;;2076352;28;20053;-74
2023/10/03 00:13:41;;;;;;;26.95;16.02;;;20.20;99.90;;;;;;2077476;28;20041;-73
2023/10/03 00:14:42;;;;;;;24.95;16.73;;;20.20;99.90;;;;;;2076670;28;20022;-74
2023/10/03 00:15:45;;;;;;;25.52;16.67;;;20.20;99.90;;;;;;2066808;28;20030;-74
2023/10/03 00:16:46;;;;;;;26.00;16.63;;;20.20;99.90;;;;;;2067160;28;20458;-74
2023/10/03 00:17:47;;;;;;;27.63;17.15;;;20.20;99.90;;;;;;2076537;28;20048;-74
2023/10/03 00:18:47;;;;;;;25.33;15.63;;;20.20;99.90;;;;;;2077953;28;20053;-74
2023/10/03 00:19:48;;;;;;;25.65;15.55;;;20.20;99.90;;;;;;2067928;28;20105;-73
2023/10/03 00:20:48;;;;;;;25.55;15.75;;;20.20;99.90;;;;;;2067515;28;20018;-74
2023/10/03 00:21:49;;;;;;;28.85;16.75;;;20.20;99.90;;;;;;2076841;28;20030;-75
2023/10/03 00:22:50;;;;;;;27.38;16.90;;;20.20;99.90;;;;;;2070095;28;20594;-74
2023/10/03 00:23:51;;;;;;;24.60;15.90;;;20.10;99.90;;;;;;2070483;28;20060;-74
2023/10/03 00:24:51;;;;;;;25.73;15.73;;;20.20;99.90;;;;;;2076349;28;20958;-74
2023/10/03 00:25:54;;;;;;;27.60;16.75;;;20.10;99.90;;;;;;2076855;28;20057;-74
2023/10/03 00:26:55;;;;;;;24.73;16.73;;;20.20;99.90;;;;;;2076025;28;20028;-74
2023/10/03 00:27:59;;;;;;;28.27;16.95;;;20.20;99.90;;;;;;2077472;28;20033;-73
2023/10/03 00:28:59;;;;;;;25.65;17.05;;;20.10;99.90;;;;;;2076320;28;20025;-74
2023/10/03 00:30:00;;;;;;;27.38;16.27;;;20.10;99.90;;;;;;2065916;28;20027;-74
2023/10/03 00:31:01;;;;;;;29.00;16.30;;;20.10;99.90;;;;;;2057637;28;20036;-74
2023/10/03 00:32:01;;;;;;;26.85;16.27;;;20.10;99.90;;;;;;2065211;28;20044;-74
2023/10/03 00:33:04;;;;;;;25.38;16.60;;;20.10;99.90;;;;;;2065550;28;20477;-73
2023/10/03 00:34:05;;;;;;;28.02;16.48;;;20.10;99.90;;;;;;2069926;28;20117;-74
2023/10/03 00:35:07;;;;;;;26.10;16.98;;;20.10;99.90;;;;;;2077445;28;20036;-74
2023/10/03 00:36:25;;;;;;;25.75;15.98;;;20.10;99.90;;;;;;2074361;28;20053;-74
2023/10/03 00:37:25;;;;;;;28.45;16.38;;;20.10;99.90;;;;;;2077015;28;20412;-73
2023/10/03 00:38:26;;;;;;;25.38;16.73;;;20.10;99.90;;;;;;2077843;28;20103;-73
2023/10/03 00:39:27;;;;;;;25.70;16.65;;;20.10;99.90;;;;;;2076339;28;20438;-74
2023/10/03 00:40:28;;;;;;;26.95;16.40;;;20.10;99.90;;;;;;2076693;28;20021;-73
2023/10/03 00:41:29;;;;;;;28.23;16.95;;;20.10;99.90;;;;;;2076225;28;20030;-74
2023/10/03 00:42:31;;;;;;;26.30;17.50;;;20.10;99.90;;;;;;2076855;28;20068;-73
2023/10/03 00:43:31;;;;;;;26.30;16.95;;;20.10;99.90;;;;;;2075974;28;20018;-74
2023/10/03 00:44:32;;;;;;;32.28;16.20;;;20.10;99.90;;;;;;2077284;28;20030;-74
2023/10/03 00:45:33;;;;;;;24.58;15.57;;;20.10;99.90;;;;;;2076006;28;20134;-74
2023/10/03 00:46:33;;;;;;;25.33;15.95;;;20.10;99.90;;;;;;2078601;28;20502;-73
2023/10/03 00:47:34;;;;;;;27.70;16.42;;;20.10;99.90;;;;;;2075012;28;20124;-74
2023/10/03 00:48:35;;;;;;;25.55;16.08;;;20.10;99.90;;;;;;2076669;28;20057;-74
2023/10/03 00:49:35;;;;;;;30.20;18.00;;;20.10;99.90;;;;;;2077591;28;20041;-73
2023/10/03 00:50:37;;;;;;;26.20;16.88;;;20.10;99.90;;;;;;2075365;28;20084;-73
2023/10/03 00:51:40;;;;;;;26.42;16.42;;;20.10;99.90;;;;;;2075880;28;20029;-73
2023/10/03 00:52:42;;;;;;;29.38;17.50;;;20.10;99.90;;;;;;2074905;28;20036;-74
2023/10/03 00:53:43;;;;;;;29.08;17.40;;;20.10;99.90;;;;;;2074668;28;20080;-73
2023/10/03 00:54:44;;;;;;;27.05;16.83;;;20.10;99.90;;;;;;2076928;28;20611;-73
2023/10/03 00:55:44;;;;;;;28.15;17.10;;;20.10;99.90;;;;;;2076818;28;20370;-74
2023/10/03 00:56:45;;;;;;;25.70;16.05;;;20.10;99.90;;;;;;2076534;28;20018;-74
2023/10/03 00:57:47;;;;;;;26.27;17.05;;;20.10;99.90;;;;;;2077993;28;20407;-73
2023/10/03 00:58:48;;;;;;;25.85;16.17;;;20.10;99.90;;;;;;2077154;28;20021;-76
2023/10/03 00:59:49;;;;;;;26.77;16.38;;;20.10;99.90;;;;;;2076204;28;20110;-76
2023/10/03 01:00:50;;;;;;;29.05;17.20;;;20.20;99.90;;;;;;2076073;28;20036;-73
2023/10/03 01:01:50;;;;;;;27.55;16.80;;;20.20;99.90;;;;;;2077186;28;20024;-73
2023/10/03 01:02:52;;;;;;;34.50;18.27;;;20.20;99.90;;;;;;2077401;28;20014;-74
2023/10/03 01:03:55;;;;;;;25.50;17.45;;;20.20;99.90;;;;;;2074529;28;20100;-73
2023/10/03 01:04:56;;;;;;;28.27;16.83;;;20.20;99.90;;;;;;2066070;28;20025;-76
2023/10/03 01:06:11;;;;;;;28.65;17.45;;;20.20;99.90;;;;;;2065835;28;20113;-75
2023/10/03 01:07:11;;;;;;;29.80;17.35;;;20.20;99.90;;;;;;2072161;28;20038;-74
2023/10/03 01:08:12;;;;;;;26.55;16.45;;;20.20;99.90;;;;;;2076507;28;20025;-74
2023/10/03 01:09:20;;;;;;;26.10;15.82;;;20.30;99.90;;;;;;2077572;28;20037;-73
2023/10/03 01:10:21;;;;;;;26.80;16.15;;;20.30;99.90;;;;;;2075888;28;20075;-74
2023/10/03 01:11:24;;;;;;;25.75;16.15;;;20.30;99.90;;;;;;2075207;28;20021;-73
2023/10/03 01:12:24;;;;;;;27.83;16.88;;;20.30;99.90;;;;;;2076996;28;20033;-74
2023/10/03 01:13:25;;;;;;;26.05;17.20;;;20.30;99.90;;;;;;2075535;28;20029;-74
2023/10/03 01:14:27;;;;;;;26.27;16.23;;;20.30;99.90;;;;;;2076134;28;20171;-74
2023/10/03 01:15:28;;;;;;;28.35;17.10;;;20.30;99.90;;;;;;2075712;28;20025;-74
2023/10/03 01:16:31;;;;;;;25.48;16.20;;;20.30;99.90;;;;;;2075865;28;20167;-73
2023/10/03 01:17:32;;;;;;;26.02;16.30;;;20.40;99.90;;;;;;2076096;28;20071;-74
2023/10/03 01:18:37;;;;;;;29.38;16.70;;;20.40;99.90;;;;;;2076740;28;20079;-74
2023/10/03 01:19:38;;;;;;;29.65;16.30;;;20.40;99.90;;;;;;2073609;28;20587;-73
2023/10/03 01:20:41;;;;;;;30.70;17.08;;;20.40;99.90;;;;;;2076506;28;20396;-76
2023/10/03 01:21:42;;;;;;;26.38;16.67;;;20.40;99.90;;;;;;2066249;28;20030;-75
2023/10/03 01:22:48;;;;;;;26.40;17.38;;;20.50;99.90;;;;;;2065499;28;20030;-76
2023/10/03 01:23:49;;;;;;;32.08;16.98;;;20.50;99.90;;;;;;2075266;28;20034;-76
2023/10/03 01:24:50;;;;;;;26.73;16.65;;;20.50;99.90;;;;;;2075036;28;20034;-75
2023/10/03 01:25:51;;;;;;;26.58;16.67;;;20.50;99.90;;;;;;2075546;28;20032;-76
2023/10/03 01:26:53;;;;;;;28.80;16.58;;;20.50;99.90;;;;;;2075504;28;20515;-76
2023/10/03 01:27:56;;;;;;;27.77;17.05;;;20.60;99.90;;;;;;2075789;28;20032;-76
2023/10/03 01:28:57;;;;;;;28.40;16.02;;;20.50;99.90;;;;;;2076233;28;20060;-76
2023/10/03 01:29:58;;;;;;;29.70;17.30;;;20.60;99.90;;;;;;2075328;28;20408;-75
2023/10/03 01:30:59;;;;;;;27.27;16.83;;;20.60;99.90;;;;;;2071014;28;20017;-76
2023/10/03 01:31:59;;;;;;;27.02;16.92;;;20.60;99.90;;;;;;2071636;28;20036;-76
2023/10/03 01:33:02;;;;;;;32.10;17.08;;;20.60;99.90;;;;;;2072168;28;20041;-76
2023/10/03 01:34:05;;;;;;;26.70;16.35;;;20.60;99.90;;;;;;2070679;28;20038;-76
2023/10/03 01:35:09;;;;;;;29.92;17.70;;;20.70;99.90;;;;;;2069040;28;20030;-76
2023/10/03 01:36:11;;;;;;;27.25;16.88;;;20.60;99.90;;;;;;2062340;28;20026;-76
2023/10/03 01:37:14;;;;;;;28.02;16.33;;;20.70;99.90;;;;;;2068776;28;20030;-76
2023/10/03 01:38:14;;;;;;;27.60;16.90;;;20.70;99.90;;;;;;2075890;28;20116;-76
2023/10/03 01:39:15;;;;;;;24.92;16.85;;;20.70;99.90;;;;;;2076137;28;20025;-75
2023/10/03 01:40:16;;;;;;;26.55;16.48;;;20.70;99.90;;;;;;2076785;28;20037;-76
2023/10/03 01:41:18;;;;;;;27.50;16.98;;;20.70;99.90;;;;;;2076115;28;20056;-75
2023/10/03 01:42:18;;;;;;;26.05;16.40;;;20.70;99.90;;;;;;2074579;28;20496;-76
2023/10/03 01:43:19;;;;;;;27.40;16.38;;;20.70;99.90;;;;;;2075617;28;20414;-76
2023/10/03 01:44:20;;;;;;;25.30;15.57;;;20.80;99.90;;;;;;2077182;28;20045;-76
2023/10/03 01:45:25;;;;;;;26.75;17.30;;;20.80;99.90;;;;;;2067973;28;20053;-73
2023/10/03 01:46:26;;;;;;;27.27;17.08;;;20.80;99.90;;;;;;2069109;28;20034;-74
2023/10/03 01:47:26;;;;;;;29.23;16.55;;;20.80;99.90;;;;;;2075468;28;20040;-74
2023/10/03 01:48:27;;;;;;;23.17;15.85;;;20.80;99.90;;;;;;2075257;28;20060;-73
2023/10/03 01:49:29;;;;;;;24.38;15.63;;;20.80;99.90;;;;;;2065803;28;20065;-76
2023/10/03 01:50:29;;;;;;;29.13;17.60;;;20.80;99.90;;;;;;2066638;28;20671;-75
2023/10/03 01:51:30;;;;;;;24.52;15.63;;;20.90;99.90;;;;;;2067606;28;20400;-76
2023/10/03 01:52:31;;;;;;;25.85;15.30;;;20.90;99.90;;;;;;2067816;28;20105;-74
2023/10/03 01:53:31;;;;;;;24.67;15.35;;;20.90;99.90;;;;;;2075862;28;20116;-75
2023/10/03 01:54:33;;;;;;;24.83;15.00;;;20.90;99.90;;;;;;2075540;28;20469;-75
2023/10/03 01:55:35;;;;;;;24.73;15.07;;;20.90;99.90;;;;;;2071141;28;20570;-76
2023/10/03 01:56:35;;;;;;;27.70;16.08;;;20.90;99.90;;;;;;2072357;28;20073;-76
2023/10/03 01:57:37;;;;;;;27.10;15.60;;;20.90;99.90;;;;;;2067812;28;20073;-72
2023/10/03 01:58:38;;;;;;;25.20;15.45;;;20.90;99.90;;;;;;2066299;28;20030;-73
2023/10/03 01:59:41;;;;;;;26.20;15.80;;;20.90;99.90;;;;;;2076662;28;20036;-75
2023/10/03 02:00:41;;;;;;;23.92;15.75;;;21.00;99.90;;;;;;2075822;28;20056;-75
2023/10/03 02:01:42;;;;;;;26.77;15.35;;;21.00;99.90;;;;;;2067728;28;20022;-75
2023/10/03 02:02:42;;;;;;;25.17;15.90;;;21.00;99.90;;;;;;2067320;28;20120;-76
2023/10/03 02:03:45;;;;;;;28.48;15.55;;;21.00;99.90;;;;;;2075921;28;20061;-75
2023/10/03 02:04:45;;;;;;;26.35;17.23;;;21.00;99.90;;;;;;2075982;28;20067;-76
2023/10/03 02:05:46;;;;;;;27.02;14.77;;;21.00;99.90;;;;;;2076021;28;20083;-75
2023/10/03 02:06:47;;;;;;;25.02;14.95;;;21.00;99.90;;;;;;2075171;28;20388;-76
2023/10/03 02:07:48;;;;;;;25.67;15.15;;;21.00;99.90;;;;;;2077147;28;20065;-74
2023/10/03 02:08:48;;;;;;;23.27;14.70;;;21.10;99.90;;;;;;2070587;28;20022;-74
2023/10/03 02:09:51;;;;;;;23.30;14.65;;;21.10;99.90;;;;;;2069647;28;20030;-73
2023/10/03 02:10:53;;;;;;;27.20;14.77;;;21.10;99.90;;;;;;2078219;28;20029;-74
2023/10/03 02:11:54;;;;;;;26.33;15.52;;;21.10;99.90;;;;;;2077915;28;20025;-73
2023/10/03 02:12:55;;;;;;;23.40;14.30;;;21.10;99.90;;;;;;2078990;28;20042;-74
2023/10/03 02:13:55;;;;;;;26.02;15.55;;;21.10;99.90;;;;;;2078227;28;20030;-75
2023/10/03 02:14:56;;;;;;;22.75;15.25;;;21.10;99.90;;;;;;2077129;28;20029;-73
2023/10/03 02:15:58;;;;;;;24.38;15.07;;;21.20;99.90;;;;;;2078605;28;20034;-71
2023/10/03 02:16:59;;;;;;;22.95;14.27;;;21.10;99.90;;;;;;2077419;28;20032;-73
2023/10/03 02:18:00;;;;;;;19.42;12.85;;;21.20;99.90;;;;;;2078314;28;20033;-72
2023/10/03 02:19:00;;;;;;;25.23;15.32;;;21.10;99.90;;;;;;2070205;28;20093;-74
2023/10/03 02:20:16;;;;;;;22.17;14.50;;;21.20;99.90;;;;;;2079139;28;20358;-74
2023/10/03 02:21:17;;;;;;;24.15;14.30;;;21.20;99.90;;;;;;2077809;28;20116;-74
2023/10/03 02:22:19;;;;;;;22.73;15.15;;;21.20;99.90;;;;;;2076817;28;20499;-74
2023/10/03 02:23:23;;;;;;;24.13;14.88;;;21.20;99.90;;;;;;2078360;28;20029;-74
2023/10/03 02:24:23;;;;;;;23.10;14.48;;;21.20;99.90;;;;;;2075740;28;20563;-74
2023/10/03 02:25:28;;;;;;;20.40;12.98;;;21.20;99.90;;;;;;2070070;28;20486;-73
2023/10/03 02:26:32;;;;;;;22.92;14.77;;;21.20;99.90;;;;;;2068632;28;20029;-73
2023/10/03 02:27:32;;;;;;;24.40;13.95;;;21.30;99.90;;;;;;2067593;28;20026;-73
2023/10/03 02:28:33;;;;;;;23.90;14.55;;;21.30;99.90;;;;;;2067760;28;20069;-73
2023/10/03 02:29:34;;;;;;;24.88;14.05;;;21.30;99.90;;;;;;2069534;28;20472;-73
2023/10/03 02:30:36;;;;;;;22.83;14.50;;;21.30;99.90;;;;;;2072197;28;20022;-73
2023/10/03 02:31:37;;;;;;;20.17;13.07;;;21.30;99.90;;;;;;2079186;28;20025;-74
2023/10/03 02:32:41;;;;;;;21.45;13.18;;;21.30;99.90;;;;;;2077134;28;20025;-74
2023/10/03 02:33:43;;;;;;;22.35;14.63;;;21.40;99.90;;;;;;2078913;28;20025;-74
2023/10/03 02:34:44;;;;;;;21.17;13.82;;;21.40;99.90;;;;;;2074836;28;20033;-75
2023/10/03 02:35:46;;;;;;;23.08;13.68;;;21.40;99.90;;;;;;2066872;28;20046;-76
2023/10/03 02:36:48;;;;;;;22.88;13.95;;;21.40;99.90;;;;;;2065193;28;20083;-76
2023/10/03 02:37:53;;;;;;;21.42;14.00;;;21.40;99.90;;;;;;2069332;28;20781;-76
2023/10/03 02:38:55;;;;;;;21.65;13.73;;;21.40;99.90;;;;;;2068995;28;20049;-76
2023/10/03 02:39:55;;;;;;;23.23;15.02;;;21.40;99.90;;;;;;2077661;28;20021;-75
2023/10/03 02:41:00;;;;;;;21.58;13.30;;;21.40;99.90;;;;;;2078037;28;20017;-76
2023/10/03 02:42:01;;;;;;;22.58;14.07;;;21.40;99.90;;;;;;2077413;28;20083;-77
2023/10/03 02:43:02;;;;;;;22.90;13.10;;;21.40;99.90;;;;;;2077569;28;20113;-76
2023/10/03 02:44:03;;;;;;;23.13;13.57;;;21.40;99.90;;;;;;2076588;28;20025;-75
2023/10/03 02:45:05;;;;;;;23.00;14.15;;;21.40;99.90;;;;;;2076111;28;20065;-77
2023/10/03 02:46:11;;;;;;;24.27;14.35;;;21.40;99.90;;;;;;2066106;28;20038;-77
2023/10/03 02:47:12;;;;;;;20.23;13.63;;;21.40;99.90;;;;;;2069991;28;20037;-76
2023/10/03 02:48:15;;;;;;;22.35;14.55;;;21.40;99.90;;;;;;2078483;28;20029;-76
2023/10/03 02:49:18;;;;;;;21.33;13.63;;;21.40;99.90;;;;;;2078478;28;20022;-76
2023/10/03 02:50:18;;;;;;;20.83;13.55;;;21.40;99.90;;;;;;2076884;28;20033;-73
2023/10/03 02:51:19;;;;;;;25.02;14.10;;;21.40;99.90;;;;;;2075954;28;20036;-73
2023/10/03 02:52:19;;;;;;;22.38;14.18;;;21.40;99.90;;;;;;2068090;28;20037;-75
2023/10/03 02:53:23;;;;;;;22.88;13.75;;;21.40;99.90;;;;;;2067715;28;20129;-76
2023/10/03 02:54:23;;;;;;;21.92;13.80;;;21.40;99.90;;;;;;2078008;28;20108;-76
2023/10/03 02:55:24;;;;;;;23.75;14.18;;;21.40;99.90;;;;;;2075809;28;20108;-76
2023/10/03 02:56:25;;;;;;;21.30;13.32;;;21.40;99.90;;;;;;2078003;28;20108;-76
2023/10/03 02:57:25;;;;;;;22.45;13.98;;;21.40;99.90;;;;;;2078247;28;20034;-76
2023/10/03 02:58:26;;;;;;;22.75;13.80;;;21.40;99.90;;;;;;2078570;28;20033;-76
2023/10/03 02:59:27;;;;;;;20.73;13.45;;;21.40;99.90;;;;;;2070258;28;20044;-76
2023/10/03 03:00:28;;;;;;;21.50;14.18;;;21.40;99.90;;;;;;2068718;28;20845;-76
2023/10/03 03:01:31;;;;;;;21.27;13.70;;;21.40;99.90;;;;;;2075600;28;20021;-74
2023/10/03 03:02:31;;;;;;;24.08;14.43;;;21.40;99.90;;;;;;2076862;28;20445;-74
2023/10/03 03:03:32;;;;;;;22.40;13.70;;;21.40;99.90;;;;;;2070722;28;20030;-76
2023/10/03 03:04:33;;;;;;;23.33;14.30;;;21.40;99.90;;;;;;2071961;28;20030;-74
2023/10/03 03:05:37;;;;;;;23.30;14.90;;;21.40;99.90;;;;;;2076746;28;20029;-74
2023/10/03 03:06:40;;;;;;;23.80;13.88;;;21.40;99.90;;;;;;2077912;28;20018;-73
2023/10/03 03:07:46;;;;;;;24.80;13.65;;;21.40;99.90;;;;;;2076841;28;20038;-73
2023/10/03 03:08:47;;;;;;;19.38;12.93;;;21.40;99.90;;;;;;2076054;28;20026;-73
2023/10/03 03:09:48;;;;;;;20.60;13.27;;;21.40;99.90;;;;;;2077103;28;20044;-74
2023/10/03 03:10:55;;;;;;;20.58;12.70;;;21.40;99.90;;;;;;2076387;28;20029;-74
2023/10/03 03:11:56;;;;;;;23.90;13.50;;;21.40;99.90;;;;;;2077117;28;20029;-74
2023/10/03 03:12:57;;;;;;;22.75;13.35;;;21.40;99.90;;;;;;2075748;28;20061;-73
2023/10/03 03:13:57;;;;;;;20.00;12.93;;;21.40;99.90;;;;;;2075593;28;20112;-74
2023/10/03 03:14:58;;;;;;;23.10;13.38;;;21.40;99.90;;;;;;2069253;28;20030;-77
2023/10/03 03:16:03;;;;;;;21.70;13.02;;;21.40;99.90;;;;;;2069982;28;20057;-75
2023/10/03 03:17:13;;;;;;;22.73;13.43;;;21.40;99.90;;;;;;2077674;28;20483;-72
2023/10/03 03:18:14;;;;;;;22.67;13.93;;;21.40;99.90;;;;;;2077637;28;20068;-74
2023/10/03 03:19:14;;;;;;;19.73;13.43;;;21.40;99.90;;;;;;2077391;28;20033;-74
2023/10/03 03:20:18;;;;;;;24.40;14.02;;;21.40;99.90;;;;;;2077724;28;20064;-76
2023/10/03 03:21:21;;;;;;;21.27;13.57;;;21.40;99.90;;;;;;2077247;28;20562;-74
2023/10/03 03:22:21;;;;;;;22.08;12.98;;;21.40;99.90;;;;;;2060702;28;20018;-74
2023/10/03 03:23:23;;;;;;;19.95;12.98;;;21.40;99.90;;;;;;2067241;28;20025;-73
2023/10/03 03:24:34;;;;;;;23.58;13.95;;;21.50;99.90;;;;;;2074557;28;20045;-74
2023/10/03 03:25:38;;;;;;;18.33;11.63;;;21.40;99.90;;;;;;2070467;28;20065;-74
2023/10/03 03:26:39;;;;;;;19.17;12.25;;;21.40;99.90;;;;;;2067605;28;20119;-73
2023/10/03 03:27:41;;;;;;;17.33;11.73;;;21.40;99.90;;;;;;2069493;28;20061;-74
2023/10/03 03:28:46;;;;;;;23.25;13.30;;;21.50;99.90;;;;;;2075495;28;20028;-74
2023/10/03 03:31:17;;;;;;;23.95;13.15;;;21.50;99.90;;;;;;2076630;28;20512;-73
2023/10/03 03:32:17;;;;;;;19.70;12.38;;;21.50;99.90;;;;;;2077590;28;20526;-73
2023/10/03 03:33:20;;;;;;;20.00;12.52;;;21.50;99.90;;;;;;2066363;28;20460;-73
2023/10/03 03:34:21;;;;;;;21.63;12.98;;;21.50;99.90;;;;;;2059087;28;20415;-73
2023/10/03 03:35:22;;;;;;;23.77;13.02;;;21.50;99.90;;;;;;2067264;28;20022;-73
2023/10/03 03:36:29;;;;;;;20.50;13.50;;;21.50;99.90;;;;;;2076898;28;20022;-73
2023/10/03 03:37:37;;;;;;;17.52;12.18;;;21.50;99.90;;;;;;2074900;28;20038;-74
2023/10/03 03:38:38;;;;;;;20.65;12.40;;;21.60;99.90;;;;;;2077077;28;20029;-73
2023/10/03 03:39:38;;;;;;;19.13;12.30;;;21.60;99.90;;;;;;2077773;28;20017;-75
2023/10/03 03:40:39;;;;;;;19.08;11.88;;;21.60;99.90;;;;;;2077892;28;20484;-74
2023/10/03 03:41:41;;;;;;;20.85;13.00;;;21.60;99.90;;;;;;2076235;28;20026;-73
2023/10/03 03:42:42;;;;;;;19.52;12.70;;;21.60;99.90;;;;;;2077277;28;20099;-74
2023/10/03 03:43:43;;;;;;;20.70;12.40;;;21.60;99.90;;;;;;2075682;28;20021;-74
2023/10/03 03:44:45;;;;;;;21.70;13.60;;;21.70;99.90;;;;;;2075201;28;20131;-73
2023/10/03 03:45:46;;;;;;;19.58;12.43;;;21.70;99.90;;;;;;2077204;28;20144;-73
2023/10/03 03:46:48;;;;;;;22.70;12.98;;;21.70;99.90;;;;;;2075691;28;20057;-74
2023/10/03 03:47:50;;;;;;;21.80;13.85;;;21.70;99.90;;;;;;2077341;28;20022;-73
2023/10/03 03:48:51;;;;;;;21.55;12.73;;;21.70;99.90;;;;;;2077561;28;20029;-73
2023/10/03 03:49:51;;;;;;;22.80;12.63;;;21.70;99.90;;;;;;2076342;28;20467;-73
2023/10/03 03:50:52;;;;;;;19.98;12.80;;;21.70;99.90;;;;;;2077938;28;20029;-74
2023/10/03 03:51:52;;;;;;;21.80;13.35;;;21.70;99.90;;;;;;2067335;28;20026;-75
2023/10/03 03:52:54;;;;;;;20.80;12.75;;;21.80;99.90;;;;;;2068679;28;20049;-74
2023/10/03 03:53:55;;;;;;;21.42;13.10;;;21.80;99.90;;;;;;2078026;28;20029;-73
2023/10/03 03:54:56;;;;;;;20.10;13.13;;;21.80;99.90;;;;;;2077074;28;20024;-74
2023/10/03 03:55:56;;;;;;;21.20;13.00;;;21.80;99.90;;;;;;2077561;28;20025;-73
2023/10/03 03:56:57;;;;;;;20.15;12.50;;;21.80;99.90;;;;;;2076441;28;20037;-72
2023/10/03 03:58:04;;;;;;;20.25;12.68;;;21.80;99.90;;;;;;2076957;28;20057;-72
2023/10/03 03:59:05;;;;;;;21.95;14.20;;;21.80;99.90;;;;;;2075945;28;20153;-74
2023/10/03 04:00:12;;;;;;;18.70;12.80;;;21.80;99.90;;;;;;2077958;28;20037;-73
2023/10/03 04:01:20;;;;;;;22.88;13.82;;;21.80;99.90;;;;;;2068845;28;20029;-76
2023/10/03 04:02:20;;;;;;;19.15;12.00;;;21.80;99.90;;;;;;2069584;28;20022;-74
2023/10/03 04:03:23;;;;;;;21.05;12.70;;;21.80;99.90;;;;;;2077023;28;20087;-73
2023/10/03 04:04:23;;;;;;;19.88;12.95;;;21.80;99.90;;;;;;2077895;28;20037;-72
2023/10/03 04:05:32;;;;;;;19.10;12.65;;;21.80;99.90;;;;;;2076106;28;20037;-72
2023/10/03 04:06:33;;;;;;;18.80;12.50;;;21.90;99.90;;;;;;2075626;28;20021;-73
2023/10/03 04:07:38;;;;;;;20.40;12.75;;;21.80;99.90;;;;;;2064723;28;20022;-73
2023/10/03 04:08:39;;;;;;;19.70;12.23;;;21.80;99.90;;;;;;2068786;28;20025;-73
2023/10/03 04:09:39;;;;;;;19.00;12.70;;;21.80;99.90;;;;;;2077347;28;20027;-73
2023/10/03 04:10:43;;;;;;;18.58;12.38;;;21.80;99.90;;;;;;2077488;28;20057;-72
2023/10/03 04:11:43;;;;;;;21.75;12.45;;;21.80;99.90;;;;;;2075153;28;20068;-72
2023/10/03 04:12:44;;;;;;;19.00;11.55;;;21.80;99.90;;;;;;2075211;28;20037;-74
2023/10/03 04:13:53;;;;;;;19.77;11.93;;;21.90;99.90;;;;;;2077201;28;20491;-73
2023/10/03 04:14:54;;;;;;;18.30;12.27;;;21.90;99.90;;;;;;2076635;28;20602;-73
2023/10/03 04:15:55;;;;;;;18.88;12.13;;;21.80;99.90;;;;;;2076936;28;20467;-74
2023/10/03 04:16:55;;;;;;;19.33;12.38;;;21.90;99.90;;;;;;2076658;28;20467;-73
2023/10/03 04:17:56;;;;;;;21.63;13.48;;;21.90;99.90;;;;;;2075160;28;20033;-73
2023/10/03 04:18:57;;;;;;;18.13;11.63;;;21.90;99.90;;;;;;2076851;28;20104;-73
2023/10/03 04:19:59;;;;;;;19.67;12.15;;;21.90;99.90;;;;;;2076470;28;20018;-73
2023/10/03 04:21:04;;;;;;;19.88;12.88;;;21.90;99.90;;;;;;2074495;28;20079;-72
2023/10/03 04:22:04;;;;;;;20.90;13.35;;;21.90;99.90;;;;;;2077971;28;20599;-73
2023/10/03 04:23:07;;;;;;;20.42;12.85;;;21.90;99.90;;;;;;2077381;28;20453;-73
2023/10/03 04:24:10;;;;;;;21.35;12.40;;;21.90;99.90;;;;;;2077442;28;20026;-74
2023/10/03 04:25:13;;;;;;;19.98;12.20;;;21.90;99.90;;;;;;2075864;28;20488;-73
2023/10/03 04:26:13;;;;;;;19.08;12.13;;;21.90;99.90;;;;;;2074542;28;20037;-72
2023/10/03 04:27:15;;;;;;;19.90;12.50;;;21.90;99.90;;;;;;2078070;28;20041;-74
2023/10/03 04:28:16;;;;;;;21.00;12.02;;;21.90;99.90;;;;;;2077734;28;20333;-74
2023/10/03 04:29:17;;;;;;;20.92;11.90;;;21.90;99.90;;;;;;2076294;28;20033;-73
2023/10/03 04:30:21;;;;;;;18.80;12.55;;;21.90;99.90;;;;;;2074853;28;20108;-73
2023/10/03 04:31:22;;;;;;;18.65;11.90;;;21.90;99.90;;;;;;2074940;28;20025;-73
2023/10/03 04:32:22;;;;;;;20.75;12.82;;;21.90;99.90;;;;;;2076245;28;20033;-74
2023/10/03 04:33:23;;;;;;;17.77;11.77;;;21.90;99.90;;;;;;2069653;28;20224;-74
2023/10/03 04:34:24;;;;;;;18.83;11.80;;;21.90;99.90;;;;;;2069253;28;20041;-74
2023/10/03 04:35:25;;;;;;;19.20;13.07;;;21.90;99.90;;;;;;2076345;28;20029;-73
2023/10/03 04:36:26;;;;;;;20.05;11.85;;;21.90;99.90;;;;;;2079087;28;20075;-74
2023/10/03 04:37:26;;;;;;;23.83;13.70;;;21.90;99.90;;;;;;2069511;28;20646;-74
2023/10/03 04:38:27;;;;;;;19.38;11.65;;;21.90;99.90;;;;;;2069581;28;20409;-73
2023/10/03 04:39:28;;;;;;;17.95;11.50;;;21.90;99.90;;;;;;2077677;28;20033;-73
2023/10/03 04:40:31;;;;;;;23.45;12.50;;;21.90;99.90;;;;;;2076475;28;20044;-73
2023/10/03 04:41:33;;;;;;;18.42;11.77;;;21.90;99.90;;;;;;2076377;28;20018;-73
2023/10/03 04:42:35;;;;;;;19.42;11.85;;;21.90;99.90;;;;;;2076652;28;20021;-73
2023/10/03 04:43:36;;;;;;;19.33;11.45;;;21.90;99.90;;;;;;2068225;28;20032;-73
2023/10/03 04:44:38;;;;;;;20.08;12.13;;;21.90;99.90;;;;;;2069640;28;20061;-73
2023/10/03 04:45:39;;;;;;;18.90;12.07;;;21.90;99.90;;;;;;2076652;28;20112;-72
2023/10/03 04:46:40;;;;;;;19.13;12.18;;;21.90;99.90;;;;;;2077736;28;20037;-73
2023/10/03 04:47:41;;;;;;;18.40;11.85;;;21.90;99.90;;;;;;2076568;28;20025;-74
2023/10/03 04:48:42;;;;;;;16.45;11.43;;;21.90;99.90;;;;;;2066013;28;20057;-74
2023/10/03 04:49:42;;;;;;;15.95;11.18;;;21.90;99.90;;;;;;2066756;28;20085;-74
2023/10/03 04:50:43;;;;;;;18.67;12.15;;;22.00;99.90;;;;;;2077806;28;20069;-73
2023/10/03 04:51:45;;;;;;;21.65;12.57;;;22.00;99.90;;;;;;2077224;28;20503;-73
2023/10/03 04:52:49;;;;;;;16.65;10.98;;;22.00;99.90;;;;;;2066879;28;20125;-73
2023/10/03 04:53:49;;;;;;;20.92;12.73;;;22.00;99.90;;;;;;2067282;28;20096;-73
2023/10/03 04:54:50;;;;;;;18.35;11.85;;;22.00;99.90;;;;;;2075323;28;20080;-73
2023/10/03 04:55:51;;;;;;;17.20;11.25;;;22.00;99.90;;;;;;2075155;28;20381;-74
2023/10/03 04:56:52;;;;;;;17.88;11.27;;;22.00;99.90;;;;;;2075073;28;20484;-74
2023/10/03 04:57:53;;;;;;;22.17;11.60;;;22.00;99.90;;;;;;2065615;28;20034;-74
2023/10/03 04:58:55;;;;;;;19.38;11.40;;;22.00;99.90;;;;;;2065089;28;20117;-74
2023/10/03 04:59:59;;;;;;;19.83;11.48;;;22.00;99.90;;;;;;2075700;28;20026;-72
2023/10/03 05:00:59;;;;;;;19.20;11.77;;;22.00;99.90;;;;;;2076552;28;20021;-73
2023/10/03 05:02:01;;;;;;;19.58;12.20;;;22.00;99.90;;;;;;2077705;28;20038;-74
2023/10/03 05:03:04;;;;;;;18.50;11.48;;;22.00;99.90;;;;;;2070611;28;20026;-73
2023/10/03 05:04:05;;;;;;;18.23;11.60;;;22.00;99.90;;;;;;2070826;28;20030;-72
2023/10/03 05:05:06;;;;;;;20.02;11.45;;;22.10;99.90;;;;;;2064465;28;20227;-74
2023/10/03 05:06:09;;;;;;;18.75;12.07;;;22.00;99.90;;;;;;2066022;28;20445;-73
2023/10/03 05:07:10;;;;;;;19.17;11.25;;;22.10;99.90;;;;;;2072964;28;20034;-74
2023/10/03 05:08:11;;;;;;;18.50;11.13;;;22.10;99.90;;;;;;2071236;28;20041;-73
2023/10/03 05:09:12;;;;;;;19.33;11.77;;;22.10;99.90;;;;;;2076674;28;20033;-74
2023/10/03 05:10:12;;;;;;;16.55;10.85;;;22.10;99.90;;;;;;2077199;28;20520;-73
2023/10/03 05:11:13;;;;;;;19.33;10.90;;;22.10;99.90;;;;;;2076141;28;20026;-74
2023/10/03 05:12:14;;;;;;;18.50;11.65;;;22.10;99.90;;;;;;2076274;28;20071;-73
2023/10/03 05:13:16;;;;;;;21.27;12.07;;;22.10;99.90;;;;;;2068854;28;20064;-74
2023/10/03 05:14:17;;;;;;;20.83;11.90;;;22.10;99.90;;;;;;2068331;28;20037;-74
2023/10/03 05:15:19;;;;;;;18.27;11.77;;;22.10;99.90;;;;;;2069828;28;20065;-73